Time;durP1;ratioP1;P1;durP2;ratioP2;P2;SDS_P1;SDS_P2;PMS_P1;PMS_P2;Temp;Humidity;BMP_temperature;BMP_pressure;BME280_temperature;BME280_humidity;BME280_pressure;Samples;Min_cycle;Max_cycle;Signal;HPM_P1;HPM_P2
2022/12/25 00:01:09;;;;;;;66.22;17.13;;;5.90;99.90;;;;;;5113383;28;20043;-62
2022/12/25 00:03:35;;;;;;;51.38;17.67;;;6.10;99.90;;;;;;5113501;28;20188;-62
2022/12/25 00:06:01;;;;;;;53.40;16.50;;;6.10;99.90;;;;;;5113143;28;20043;-62
2022/12/25 00:08:26;;;;;;;44.50;15.45;;;5.80;99.90;;;;;;5113264;28;20096;-61
2022/12/25 00:10:57;;;;;;;40.95;16.42;;;5.80;99.90;;;;;;5113274;28;20470;-62
2022/12/25 00:13:23;;;;;;;50.53;17.15;;;5.80;99.90;;;;;;5113110;28;20043;-61
2022/12/25 00:15:48;;;;;;;58.08;18.83;;;5.70;99.90;;;;;;5113125;28;20043;-63
2022/12/25 00:18:14;;;;;;;51.50;17.45;;;5.90;99.90;;;;;;5112985;28;20143;-62
2022/12/25 00:20:39;;;;;;;53.88;17.27;;;6.00;99.90;;;;;;5113587;28;20122;-62
2022/12/25 00:23:05;;;;;;;55.78;18.33;;;5.90;99.90;;;;;;5113117;28;20028;-62
2022/12/25 00:25:31;;;;;;;43.15;17.73;;;5.80;99.90;;;;;;5113447;28;20050;-62
2022/12/25 00:27:56;;;;;;;55.05;19.58;;;5.50;99.90;;;;;;5113353;28;20470;-62
2022/12/25 00:30:22;;;;;;;51.58;17.75;;;5.80;99.90;;;;;;5113094;28;20043;-62
2022/12/25 00:32:48;;;;;;;49.33;18.20;;;5.90;99.90;;;;;;5112723;28;20043;-63
2022/12/25 00:35:13;;;;;;;53.33;17.88;;;5.90;99.90;;;;;;5094880;28;20047;-62
2022/12/25 00:37:39;;;;;;;54.88;19.77;;;5.80;99.90;;;;;;5112892;28;20069;-62
2022/12/25 00:40:05;;;;;;;63.75;18.98;;;5.60;99.90;;;;;;5112896;28;20036;-62
2022/12/25 00:42:31;;;;;;;51.28;17.23;;;5.60;99.90;;;;;;5113005;28;20077;-62
2022/12/25 00:44:57;;;;;;;49.70;19.73;;;5.80;99.90;;;;;;5113266;28;20036;-62
2022/12/25 00:47:22;;;;;;;58.80;18.67;;;5.60;99.90;;;;;;5094377;28;20069;-62
2022/12/25 00:49:48;;;;;;;54.35;16.90;;;5.70;99.90;;;;;;5114848;28;20043;-62
2022/12/25 00:52:14;;;;;;;52.25;18.10;;;5.80;99.90;;;;;;5116918;28;20039;-62
2022/12/25 00:54:39;;;;;;;57.92;17.27;;;5.60;99.90;;;;;;5116298;28;20104;-62
2022/12/25 00:57:05;;;;;;;50.83;18.05;;;5.70;99.90;;;;;;5116321;28;20036;-62
2022/12/25 00:59:32;;;;;;;50.33;17.58;;;5.70;99.90;;;;;;5116455;28;20036;-62
2022/12/25 01:02:22;;;;;;;55.33;19.02;;;5.80;99.90;;;;;;5116498;28;20465;-62
2022/12/25 01:04:44;;;;;;;49.75;17.02;;;5.90;99.90;;;;;;5116373;28;20039;-62
2022/12/25 01:07:10;;;;;;;51.92;18.30;;;5.70;99.90;;;;;;5116643;28;20039;-62
2022/12/25 01:12:20;;;;;;;55.50;17.65;;;6.00;99.90;;;;;;5116463;28;20079;-62
2022/12/25 01:14:46;;;;;;;39.28;16.35;;;5.70;99.90;;;;;;5116579;28;20085;-62
2022/12/25 01:17:12;;;;;;;51.92;18.48;;;6.00;99.90;;;;;;5116144;28;20047;-62
2022/12/25 01:19:37;;;;;;;41.97;16.45;;;5.80;99.90;;;;;;5116547;28;20521;-62
2022/12/25 01:22:03;;;;;;;47.25;17.25;;;6.00;99.90;;;;;;5115893;28;20043;-62
2022/12/25 01:24:28;;;;;;;55.90;17.90;;;5.90;99.90;;;;;;5116140;28;20086;-62
2022/12/25 01:26:54;;;;;;;41.80;17.58;;;5.80;99.90;;;;;;5116307;28;20127;-62
2022/12/25 01:29:20;;;;;;;54.83;17.95;;;5.90;99.90;;;;;;5116561;28;20693;-62
2022/12/25 01:31:45;;;;;;;57.15;20.45;;;5.90;99.90;;;;;;5116232;28;20036;-62
2022/12/25 01:34:11;;;;;;;68.47;18.77;;;5.90;99.90;;;;;;5097498;28;20516;-62
2022/12/25 01:36:36;;;;;;;57.15;18.02;;;5.80;99.90;;;;;;5115790;28;20040;-62
2022/12/25 01:39:03;;;;;;;51.15;16.73;;;6.00;99.90;;;;;;5116199;28;20075;-63
2022/12/25 01:41:29;;;;;;;59.20;19.17;;;5.90;99.90;;;;;;5115783;28;20040;-62
2022/12/25 01:44:14;;;;;;;63.00;18.92;;;5.90;99.90;;;;;;5115774;28;20047;-62
2022/12/25 01:46:41;;;;;;;61.45;20.15;;;6.10;99.90;;;;;;5115867;28;20057;-63
2022/12/25 01:49:13;;;;;;;65.57;20.13;;;6.00;99.90;;;;;;5115824;28;20033;-63
2022/12/25 01:51:46;;;;;;;68.43;20.70;;;6.20;99.90;;;;;;5115430;28;20031;-62
2022/12/25 01:54:16;;;;;;;83.93;22.38;;;6.20;99.90;;;;;;5115524;28;20039;-63
2022/12/25 01:56:44;;;;;;;84.30;22.98;;;6.50;99.90;;;;;;5115546;28;20074;-62
2022/12/25 01:59:12;;;;;;;70.45;21.27;;;6.40;99.90;;;;;;5115579;28;20054;-62
2022/12/25 02:01:38;;;;;;;80.80;23.05;;;6.50;99.90;;;;;;5115063;28;20110;-62
2022/12/25 02:04:39;;;;;;;72.43;21.38;;;6.50;99.90;;;;;;5115489;28;20031;-63
2022/12/25 02:07:22;;;;;;;73.10;21.13;;;6.50;99.90;;;;;;5115329;28;20032;-63
2022/12/25 02:09:48;;;;;;;84.15;22.77;;;6.40;99.90;;;;;;5115546;28;20054;-63
2022/12/25 02:12:19;;;;;;;63.53;23.42;;;6.70;99.90;;;;;;5115623;28;20115;-63
2022/12/25 02:14:47;;;;;;;72.25;22.83;;;6.40;99.90;;;;;;5115379;28;20039;-63
2022/12/25 02:17:23;;;;;;;69.68;22.83;;;6.60;99.90;;;;;;5096846;28;20099;-62
2022/12/25 02:20:07;;;;;;;71.32;21.15;;;6.70;99.90;;;;;;5115287;28;20389;-62
2022/12/25 02:22:33;;;;;;;72.45;21.40;;;6.60;99.90;;;;;;5115321;28;20432;-62
2022/12/25 02:25:19;;;;;;;75.90;24.10;;;6.90;99.90;;;;;;5115464;28;20061;-62
2022/12/25 02:27:51;;;;;;;69.82;22.02;;;6.90;99.90;;;;;;5115029;28;20043;-61
2022/12/25 02:30:17;;;;;;;67.18;22.50;;;6.90;99.90;;;;;;5115183;28;20039;-63
2022/12/25 02:34:01;;;;;;;63.95;22.80;;;6.90;99.90;;;;;;5114819;28;20389;-63
2022/12/25 02:35:49;;;;;;;74.40;22.30;;;6.80;99.90;;;;;;5114730;28;20083;-63
2022/12/25 02:38:24;;;;;;;75.70;23.50;;;7.00;99.90;;;;;;5115151;28;20116;-62
2022/12/25 02:40:55;;;;;;;67.75;22.50;;;7.00;99.90;;;;;;5114824;28;20067;-62
2022/12/25 03:11:29;;;;;;;69.10;23.88;;;7.10;99.90;;;;;;5114339;28;20052;-63
2022/12/25 03:11:51;;;;;;;64.07;23.02;;;7.20;99.90;;;;;;5113220;28;20054;-62
2022/12/25 03:17:01;;;;;;;62.80;22.58;;;7.20;99.90;;;;;;5113515;28;20044;-62
2022/12/25 03:27:57;;;;;;;58.08;20.80;;;7.00;99.90;;;;;;5095617;28;20050;-62
2022/12/25 03:33:35;;;;;;;60.22;20.85;;;7.00;99.90;;;;;;5113661;28;20048;-63
2022/12/25 03:36:13;;;;;;;53.33;21.80;;;7.00;99.90;;;;;;5113932;28;20057;-62
2022/12/25 03:45:43;;;;;;;50.15;20.40;;;7.10;99.90;;;;;;5113713;28;20040;-63
2022/12/25 04:37:20;;;;;;;62.72;23.77;;;7.50;99.90;;;;;;5117558;28;20040;-63
2022/12/25 04:39:46;;;;;;;64.40;23.60;;;7.70;99.90;;;;;;5117160;28;20084;-63
2022/12/25 04:42:11;;;;;;;65.30;23.52;;;7.60;99.90;;;;;;5117159;28;20050;-63
2022/12/25 04:44:37;;;;;;;64.85;25.17;;;7.50;99.90;;;;;;5117384;28;20086;-63
2022/12/25 04:47:03;;;;;;;68.30;24.00;;;7.70;99.90;;;;;;5117124;28;20472;-64
2022/12/25 04:49:28;;;;;;;73.50;24.17;;;7.80;99.90;;;;;;5116769;28;20457;-64
2022/12/25 04:51:54;;;;;;;79.30;25.42;;;7.70;99.90;;;;;;5116657;28;20036;-63
2022/12/25 04:54:19;;;;;;;61.42;24.63;;;8.00;99.90;;;;;;5116815;28;20115;-62
2022/12/25 04:56:45;;;;;;;75.93;25.83;;;7.80;99.90;;;;;;5116883;28;20035;-63
2022/12/25 04:59:11;;;;;;;71.38;23.25;;;7.90;99.90;;;;;;5116724;28;20451;-63
2022/12/25 05:01:37;;;;;;;65.60;25.55;;;7.70;99.90;;;;;;5116850;28;20043;-63
2022/12/25 05:04:03;;;;;;;57.80;24.13;;;8.00;99.90;;;;;;5116687;28;20118;-63
2022/12/25 05:06:28;;;;;;;77.85;25.45;;;7.80;99.90;;;;;;5116880;28;20119;-63
2022/12/25 05:08:54;;;;;;;81.22;25.55;;;7.80;99.90;;;;;;5098339;28;20130;-63
2022/12/25 05:11:21;;;;;;;74.38;23.52;;;8.00;99.90;;;;;;5098303;28;20085;-63
2022/12/25 05:13:46;;;;;;;67.65;24.55;;;7.80;99.90;;;;;;5116297;28;20039;-63
2022/12/25 05:16:15;;;;;;;77.55;24.08;;;8.00;99.90;;;;;;5116123;28;20044;-63
2022/12/25 05:18:41;;;;;;;76.03;24.65;;;8.20;99.90;;;;;;5116678;28;20046;-63
2022/12/25 05:21:06;;;;;;;68.20;22.65;;;8.10;99.90;;;;;;5116425;28;20397;-64
2022/12/25 05:23:32;;;;;;;69.65;24.48;;;7.90;99.90;;;;;;5116243;28;20393;-63
2022/12/25 05:25:58;;;;;;;60.50;24.42;;;8.00;99.90;;;;;;5116205;28;20036;-63
2022/12/25 05:28:24;;;;;;;68.43;22.92;;;7.90;99.90;;;;;;5098133;28;20039;-63
2022/12/25 05:30:49;;;;;;;60.95;23.13;;;8.10;99.90;;;;;;5116166;28;20548;-63
2022/12/25 05:33:15;;;;;;;69.15;23.13;;;8.20;99.90;;;;;;5116104;28;20039;-62
2022/12/25 05:35:41;;;;;;;59.63;22.83;;;8.10;99.90;;;;;;5115090;28;20039;-63
2022/12/25 05:38:07;;;;;;;66.53;24.27;;;8.30;99.90;;;;;;5116005;28;20040;-63
2022/12/25 05:40:33;;;;;;;60.47;23.60;;;8.00;99.90;;;;;;5116108;28;20039;-64
2022/12/25 05:42:59;;;;;;;77.30;24.58;;;8.20;99.90;;;;;;5116152;28;20036;-64
2022/12/25 05:45:24;;;;;;;71.90;24.85;;;8.30;99.90;;;;;;5115791;28;20047;-63
2022/12/25 05:47:51;;;;;;;71.50;23.38;;;8.20;99.90;;;;;;5115537;28;20093;-63
2022/12/25 05:50:17;;;;;;;67.38;24.05;;;8.10;99.90;;;;;;5115691;28;20036;-63
2022/12/25 05:52:42;;;;;;;66.30;24.35;;;8.10;99.90;;;;;;5115885;28;20046;-63
2022/12/25 05:55:08;;;;;;;69.88;24.90;;;8.20;99.90;;;;;;5115467;28;20362;-63
2022/12/25 05:57:34;;;;;;;70.18;24.65;;;8.10;99.90;;;;;;5115855;28;20241;-63
2022/12/25 05:59:59;;;;;;;71.78;25.60;;;8.00;99.90;;;;;;5115345;28;20054;-63
2022/12/25 06:02:25;;;;;;;72.75;25.15;;;8.00;99.90;;;;;;5115454;28;20028;-63
2022/12/25 06:04:51;;;;;;;59.38;24.67;;;8.20;99.90;;;;;;5115319;28;20043;-63
2022/12/25 06:07:16;;;;;;;66.72;24.52;;;8.00;99.90;;;;;;5115708;28;20040;-63
2022/12/25 06:09:42;;;;;;;59.35;25.98;;;8.20;99.90;;;;;;5115454;28;20541;-63
2022/12/25 06:12:08;;;;;;;59.03;25.33;;;8.30;99.90;;;;;;5115553;28;20658;-63
2022/12/25 06:14:34;;;;;;;71.65;27.63;;;8.30;99.90;;;;;;5115348;28;20043;-63
2022/12/25 06:17:00;;;;;;;80.00;26.02;;;8.10;99.90;;;;;;5115323;28;20056;-63
2022/12/25 06:19:26;;;;;;;78.35;29.40;;;8.20;99.90;;;;;;5115438;28;20048;-64
2022/12/25 06:21:55;;;;;;;73.80;26.67;;;8.10;99.90;;;;;;5115055;28;20042;-63
2022/12/25 06:24:21;;;;;;;78.13;27.30;;;8.10;99.90;;;;;;5096939;28;20119;-63
2022/12/25 06:26:47;;;;;;;74.13;27.55;;;8.20;99.90;;;;;;5115298;28;20027;-64
2022/12/25 06:29:13;;;;;;;78.82;27.20;;;8.20;99.90;;;;;;5115235;28;20096;-63
2022/12/25 06:31:39;;;;;;;74.50;26.98;;;8.10;99.90;;;;;;5115394;28;20123;-62
2022/12/25 06:34:04;;;;;;;75.28;26.83;;;8.30;99.90;;;;;;5096975;28;20047;-63
2022/12/25 06:36:30;;;;;;;77.93;27.35;;;8.20;99.90;;;;;;5115246;28;20039;-64
2022/12/25 06:38:59;;;;;;;82.75;28.17;;;8.40;99.90;;;;;;5115035;28;20028;-64
2022/12/25 06:41:27;;;;;;;70.18;27.95;;;8.20;99.90;;;;;;5114717;28;20043;-63
2022/12/25 06:43:56;;;;;;;77.20;26.50;;;8.10;99.90;;;;;;5114811;28;20031;-63
2022/12/25 06:46:24;;;;;;;78.03;27.98;;;8.40;99.90;;;;;;5113656;28;20493;-63
2022/12/25 06:48:50;;;;;;;78.50;27.38;;;8.30;99.90;;;;;;5096608;28;20040;-63
2022/12/25 06:51:17;;;;;;;77.13;27.35;;;8.40;99.90;;;;;;5114678;28;20040;-63
2022/12/25 06:53:43;;;;;;;78.88;28.92;;;8.20;99.90;;;;;;5114756;28;20044;-63
2022/12/25 06:56:14;;;;;;;75.53;29.33;;;8.10;99.90;;;;;;5114027;28;20039;-63
2022/12/25 06:59:07;;;;;;;81.40;27.65;;;8.40;99.90;;;;;;5114579;28;20042;-63
2022/12/25 07:01:34;;;;;;;67.03;28.60;;;8.20;99.90;;;;;;5110532;28;20105;-63
2022/12/25 07:04:12;;;;;;;82.00;28.77;;;8.40;99.90;;;;;;5114808;28;20039;-63
2022/12/25 07:06:38;;;;;;;82.00;30.10;;;8.40;99.90;;;;;;5114466;28;20039;-63
2022/12/25 07:09:03;;;;;;;67.93;28.30;;;8.50;99.90;;;;;;5114661;28;20046;-63
2022/12/25 07:11:29;;;;;;;72.32;28.40;;;8.50;99.90;;;;;;5114121;28;20035;-63
2022/12/25 07:13:54;;;;;;;78.25;28.90;;;8.20;99.90;;;;;;5114364;28;20397;-62
2022/12/25 07:16:20;;;;;;;71.82;27.67;;;8.20;99.90;;;;;;5113908;28;20473;-63
2022/12/25 07:18:46;;;;;;;70.93;27.20;;;8.40;99.90;;;;;;5114421;28;20055;-63
2022/12/25 07:21:17;;;;;;;70.40;29.55;;;8.40;99.90;;;;;;5114306;28;20031;-63
2022/12/25 07:23:44;;;;;;;77.55;28.90;;;8.20;99.90;;;;;;5096071;28;20482;-63
2022/12/25 07:26:11;;;;;;;67.25;27.45;;;8.40;99.90;;;;;;5114379;28;20450;-63
2022/12/25 07:28:37;;;;;;;73.50;28.10;;;8.40;99.90;;;;;;5114331;28;20043;-64
2022/12/25 07:31:14;;;;;;;70.57;26.75;;;8.50;99.90;;;;;;5113967;28;20032;-63
2022/12/25 07:33:41;;;;;;;76.57;28.23;;;8.30;99.90;;;;;;5114353;28;20063;-63
2022/12/25 07:36:07;;;;;;;65.13;26.42;;;8.50;99.90;;;;;;5114262;28;20097;-63
2022/12/25 07:38:33;;;;;;;63.40;27.33;;;8.50;99.90;;;;;;5114133;28;20089;-63
2022/12/25 07:40:59;;;;;;;66.68;27.70;;;8.60;99.90;;;;;;5095671;28;20031;-63
2022/12/25 07:43:25;;;;;;;60.42;25.52;;;8.40;99.90;;;;;;5095496;28;20031;-63
2022/12/25 07:45:58;;;;;;;59.92;26.00;;;8.30;99.90;;;;;;5113870;28;20089;-63
2022/12/25 07:48:25;;;;;;;56.05;24.73;;;8.30;99.90;;;;;;5114073;28;20122;-62
2022/12/25 07:51:02;;;;;;;60.15;25.38;;;8.50;99.90;;;;;;5114113;28;20043;-62
2022/12/25 07:53:28;;;;;;;68.70;27.60;;;8.60;99.90;;;;;;5095110;28;20043;-63
2022/12/25 07:56:03;;;;;;;54.42;24.83;;;8.40;99.90;;;;;;5113541;28;20485;-62
2022/12/25 07:58:30;;;;;;;65.20;25.17;;;8.50;99.90;;;;;;5113334;28;20032;-63
2022/12/25 08:01:02;;;;;;;52.28;24.17;;;8.40;99.90;;;;;;5095235;28;20072;-63
2022/12/25 08:03:28;;;;;;;50.53;23.77;;;8.60;99.90;;;;;;5113427;28;20043;-63
2022/12/25 08:05:57;;;;;;;49.88;23.90;;;8.40;99.90;;;;;;5113246;28;20047;-63
2022/12/25 08:08:23;;;;;;;59.08;22.70;;;8.60;99.90;;;;;;5113719;28;20044;-63
2022/12/25 08:10:48;;;;;;;49.80;23.00;;;8.60;99.90;;;;;;5113635;28;20047;-63
2022/12/25 08:13:14;;;;;;;53.25;22.05;;;8.70;99.90;;;;;;5113101;28;20043;-62
2022/12/25 08:15:40;;;;;;;53.05;22.38;;;8.70;99.90;;;;;;5113252;28;20078;-63
2022/12/25 08:18:06;;;;;;;51.85;21.60;;;8.70;99.90;;;;;;5113373;28;20047;-63
2022/12/25 08:20:33;;;;;;;40.30;21.08;;;8.70;99.90;;;;;;5113167;28;20047;-62
2022/12/25 08:22:58;;;;;;;42.92;21.27;;;8.60;99.90;;;;;;5113154;28;20064;-63
2022/12/25 08:25:24;;;;;;;39.45;20.17;;;8.60;99.90;;;;;;5113069;28;20071;-63
2022/12/25 08:27:49;;;;;;;44.80;20.83;;;8.60;99.90;;;;;;5113396;28;20046;-63
2022/12/25 08:30:15;;;;;;;41.88;19.98;;;8.70;99.90;;;;;;5113610;28;20050;-63
2022/12/25 08:32:41;;;;;;;37.45;19.75;;;8.80;99.90;;;;;;5112813;28;20465;-63
2022/12/25 08:35:07;;;;;;;38.30;19.27;;;8.90;99.90;;;;;;5113313;28;20042;-64
2022/12/25 08:37:32;;;;;;;37.28;18.77;;;8.80;99.90;;;;;;5113017;28;20039;-64
2022/12/25 08:39:58;;;;;;;36.30;18.75;;;8.80;99.90;;;;;;5113204;28;20367;-63
2022/12/25 08:42:24;;;;;;;39.85;18.77;;;8.80;99.90;;;;;;5112966;28;20031;-64
2022/12/25 08:44:49;;;;;;;35.60;18.55;;;9.00;99.90;;;;;;5112951;28;20047;-63
2022/12/25 08:47:15;;;;;;;30.00;18.05;;;8.70;99.90;;;;;;5113152;28;20071;-64
2022/12/25 08:49:41;;;;;;;34.92;17.90;;;8.70;99.90;;;;;;5113113;28;20032;-63
2022/12/25 08:52:06;;;;;;;38.50;18.08;;;8.60;99.90;;;;;;5113483;28;20550;-63
2022/12/25 08:54:35;;;;;;;37.78;18.83;;;8.70;99.90;;;;;;5113247;28;20075;-63
2022/12/25 08:57:01;;;;;;;37.17;17.02;;;8.80;99.90;;;;;;5113296;28;20043;-63
2022/12/25 08:59:27;;;;;;;37.15;17.92;;;8.70;99.90;;;;;;5113210;28;20043;-63
2022/12/25 09:01:53;;;;;;;32.05;17.35;;;8.70;99.90;;;;;;5113377;28;20405;-63
2022/12/25 09:04:19;;;;;;;35.10;16.77;;;8.80;99.90;;;;;;5113404;28;20385;-63
2022/12/25 09:06:44;;;;;;;35.15;19.55;;;8.60;99.90;;;;;;5113365;28;20039;-63
2022/12/25 09:09:10;;;;;;;33.17;16.98;;;8.70;99.90;;;;;;5113203;28;20039;-63
2022/12/25 09:11:35;;;;;;;38.92;17.65;;;8.90;99.90;;;;;;5116413;28;20032;-63
2022/12/25 09:14:01;;;;;;;34.28;16.92;;;8.80;99.90;;;;;;5117058;28;20118;-63
2022/12/25 09:16:27;;;;;;;32.63;17.15;;;8.80;99.90;;;;;;5116564;28;20042;-64
2022/12/25 09:18:55;;;;;;;25.95;14.02;;;8.70;99.90;;;;;;5116726;28;20485;-63
2022/12/25 09:21:21;;;;;;;33.65;16.33;;;8.90;99.90;;;;;;5116612;28;20031;-63
2022/12/25 09:23:47;;;;;;;30.45;14.65;;;8.70;99.90;;;;;;5116776;28;20038;-63
2022/12/25 09:26:15;;;;;;;25.40;13.75;;;8.80;99.90;;;;;;5116465;28;20051;-63
2022/12/25 09:28:41;;;;;;;21.63;13.13;;;8.70;99.90;;;;;;5098034;28;20058;-63
2022/12/25 09:31:06;;;;;;;27.17;14.00;;;8.70;99.90;;;;;;5098344;28;20118;-63
2022/12/25 09:33:32;;;;;;;24.52;13.10;;;8.70;99.90;;;;;;5116245;28;20424;-64
2022/12/25 09:36:00;;;;;;;25.15;13.13;;;8.80;99.90;;;;;;5115531;28;20049;-64
2022/12/25 09:38:26;;;;;;;23.23;12.45;;;8.70;99.90;;;;;;5115420;28;20049;-64
2022/12/25 09:41:06;;;;;;;21.40;12.10;;;8.90;99.90;;;;;;5115870;28;20043;-63
2022/12/25 09:43:36;;;;;;;;;;;8.90;99.90;;;;;;5116148;28;20035;-63
2022/12/25 09:46:03;;;;;;;19.40;11.93;;;8.70;99.90;;;;;;5116113;28;19923;-63
2022/12/25 09:48:32;;;;;;;19.95;12.25;;;8.90;99.90;;;;;;5097579;28;20083;-63
2022/12/25 09:51:08;;;;;;;27.75;12.25;;;8.90;99.90;;;;;;5116027;28;20039;-64
2022/12/25 09:53:50;;;;;;;27.38;11.63;;;8.90;99.90;;;;;;5116159;28;20384;-63
2022/12/25 09:56:24;;;;;;;18.05;10.80;;;8.60;99.90;;;;;;5115711;28;20114;-63
2022/12/25 09:58:50;;;;;;;23.70;11.35;;;8.70;99.90;;;;;;5115830;28;20040;-63
2022/12/25 10:01:30;;;;;;;21.45;11.40;;;8.90;99.90;;;;;;5115402;28;20450;-63
2022/12/25 10:04:13;;;;;;;22.23;10.45;;;8.70;99.90;;;;;;5115509;28;20500;-63
2022/12/25 10:06:39;;;;;;;18.17;10.43;;;8.90;99.90;;;;;;5115464;28;20039;-63
2022/12/25 10:09:30;;;;;;;18.70;11.18;;;8.80;99.90;;;;;;5115196;28;20054;-63
2022/12/25 10:12:40;;;;;;;21.20;10.50;;;8.90;99.90;;;;;;5115510;28;20127;-63
2022/12/25 10:15:33;;;;;;;18.80;10.43;;;8.70;99.90;;;;;;5012306;28;20173;-63
2022/12/25 10:18:34;;;;;;;22.23;10.15;;;8.90;99.90;;;;;;5012418;28;20487;-63
2022/12/25 10:21:02;;;;;;;19.77;10.02;;;8.90;99.90;;;;;;5012832;28;20038;-63
2022/12/25 10:23:34;;;;;;;22.17;10.60;;;8.80;99.90;;;;;;5012877;28;20173;-63
2022/12/25 10:26:00;;;;;;;22.70;10.52;;;8.80;99.90;;;;;;5012621;28;20045;-64
2022/12/25 10:28:40;;;;;;;19.23;9.48;;;8.70;99.90;;;;;;5012459;28;20046;-63
2022/12/25 10:31:20;;;;;;;17.52;9.35;;;8.80;99.90;;;;;;4996486;28;20399;-63
2022/12/25 10:33:48;;;;;;;22.02;9.43;;;8.70;99.90;;;;;;5012407;28;20488;-63
2022/12/25 10:36:18;;;;;;;18.55;9.73;;;8.80;99.90;;;;;;5012525;28;20046;-63
2022/12/25 10:38:44;;;;;;;16.65;9.90;;;8.90;99.90;;;;;;5012297;28;20093;-63
2022/12/25 10:41:29;;;;;;;20.80;9.90;;;9.00;99.90;;;;;;5012333;28;20033;-63
2022/12/25 10:43:56;;;;;;;17.42;9.63;;;8.90;99.90;;;;;;5012277;28;20052;-63
2022/12/25 10:46:25;;;;;;;16.42;9.68;;;8.90;99.90;;;;;;5012302;28;20173;-63
2022/12/25 10:48:59;;;;;;;16.45;9.20;;;8.80;99.90;;;;;;5012322;28;20175;-63
2022/12/25 10:51:38;;;;;;;14.82;9.15;;;8.80;99.90;;;;;;5043277;28;20051;-62
2022/12/25 10:54:23;;;;;;;17.23;9.55;;;8.80;99.90;;;;;;5114301;28;20036;-63
2022/12/25 10:57:23;;;;;;;19.75;8.95;;;8.90;99.90;;;;;;5114131;28;20039;-63
2022/12/25 10:59:51;;;;;;;17.05;8.07;;;9.00;99.90;;;;;;5011769;28;20120;-64
2022/12/25 11:02:37;;;;;;;17.38;8.75;;;8.80;99.90;;;;;;5011423;28;20045;-63
2022/12/25 11:05:27;;;;;;;16.83;8.40;;;9.00;99.90;;;;;;5011682;28;20050;-63
2022/12/25 11:07:54;;;;;;;14.45;8.77;;;9.10;99.90;;;;;;4937703;29;20062;-64
2022/12/25 11:10:42;;;;;;;18.38;8.38;;;8.90;99.90;;;;;;4953459;29;20153;-63
2022/12/25 11:13:19;;;;;;;18.13;8.48;;;8.90;99.90;;;;;;4953623;29;20059;-63
2022/12/25 11:15:48;;;;;;;17.45;8.98;;;9.00;99.90;;;;;;4953428;29;20061;-64
2022/12/25 11:18:28;;;;;;;21.90;9.13;;;9.00;99.90;;;;;;4953127;29;20055;-63
2022/12/25 11:20:59;;;;;;;19.27;9.02;;;9.10;99.90;;;;;;4953315;29;20060;-63
2022/12/25 11:23:26;;;;;;;14.55;8.02;;;9.00;99.90;;;;;;4937263;29;20066;-63
2022/12/25 11:26:11;;;;;;;17.45;8.88;;;9.10;99.90;;;;;;4952799;29;20059;-63
2022/12/25 11:28:39;;;;;;;16.88;8.43;;;9.20;99.90;;;;;;4953093;29;20062;-63
2022/12/25 11:31:12;;;;;;;17.40;7.95;;;9.20;99.90;;;;;;4952888;29;20047;-63
2022/12/25 11:33:45;;;;;;;13.70;7.22;;;9.10;99.90;;;;;;4952538;28;20047;-63
2022/12/25 11:36:31;;;;;;;14.27;7.88;;;9.10;99.90;;;;;;5021785;28;20044;-63
2022/12/25 11:39:08;;;;;;;13.77;7.15;;;9.10;99.90;;;;;;5051020;28;20522;-63
2022/12/25 11:41:37;;;;;;;13.70;7.20;;;9.20;99.90;;;;;;5051207;28;20041;-63
2022/12/25 11:44:06;;;;;;;;;;;9.20;99.90;;;;;;5061029;28;20048;-63
2022/12/25 11:46:42;;;;;;;13.27;7.35;;;9.30;99.90;;;;;;5113934;28;19922;-62
2022/12/25 11:49:15;;;;;;;18.95;7.80;;;9.30;99.90;;;;;;5113704;28;20475;-63
2022/12/25 11:51:45;;;;;;;11.98;6.90;;;9.10;99.90;;;;;;5113948;28;20134;-63
2022/12/25 11:54:37;;;;;;;11.70;6.82;;;9.20;99.90;;;;;;5114213;28;20112;-63
2022/12/25 11:57:05;;;;;;;15.15;6.72;;;9.20;99.90;;;;;;5112676;28;20055;-63
2022/12/25 11:59:47;;;;;;;14.55;6.57;;;9.30;99.90;;;;;;5113611;28;20054;-63
2022/12/25 12:02:34;;;;;;;15.85;6.80;;;9.10;99.90;;;;;;5113625;28;20040;-63
2022/12/25 12:05:07;;;;;;;14.43;6.93;;;9.10;99.90;;;;;;5113322;28;20039;-63
2022/12/25 12:07:34;;;;;;;13.20;6.13;;;9.20;99.90;;;;;;5093271;28;20042;-63
2022/12/25 12:10:08;;;;;;;13.18;6.55;;;9.30;99.90;;;;;;5093203;28;20042;-63
2022/12/25 12:12:56;;;;;;;16.63;6.57;;;9.10;99.90;;;;;;5093522;28;20097;-63
2022/12/25 12:15:34;;;;;;;11.05;5.95;;;9.30;99.90;;;;;;5093211;28;20040;-62
2022/12/25 12:18:24;;;;;;;11.10;6.15;;;9.20;99.90;;;;;;5106083;28;20052;-63
2022/12/25 12:21:06;;;;;;;11.73;5.85;;;9.20;99.90;;;;;;5113466;28;20114;-63
2022/12/25 12:23:45;;;;;;;17.30;6.80;;;9.20;99.90;;;;;;5113200;28;20107;-63
2022/12/25 12:26:27;;;;;;;12.38;6.22;;;9.30;99.90;;;;;;5113120;28;20047;-65
2022/12/25 12:28:57;;;;;;;17.67;6.88;;;9.20;99.90;;;;;;5112458;28;20110;-65
2022/12/25 12:31:23;;;;;;;12.13;6.70;;;9.20;99.90;;;;;;5113312;28;20048;-64
2022/12/25 12:33:57;;;;;;;14.13;6.60;;;9.20;99.90;;;;;;5112834;28;20493;-64
2022/12/25 12:36:25;;;;;;;12.00;6.30;;;9.20;99.90;;;;;;5112577;28;20118;-64
2022/12/25 12:38:53;;;;;;;9.10;6.40;;;9.20;99.90;;;;;;5112803;28;20416;-63
2022/12/25 12:41:21;;;;;;;11.60;6.88;;;9.30;99.90;;;;;;5113024;28;20043;-64
2022/12/25 12:43:53;;;;;;;16.17;6.88;;;9.20;99.90;;;;;;5094559;28;20192;-64
2022/12/25 12:46:26;;;;;;;13.27;6.68;;;9.50;99.90;;;;;;5117122;28;20043;-63
2022/12/25 12:48:53;;;;;;;12.02;6.90;;;9.30;99.90;;;;;;5116932;28;20148;-64
2022/12/25 12:51:34;;;;;;;15.07;6.75;;;9.40;99.90;;;;;;5116806;28;20043;-63
2022/12/25 12:54:25;;;;;;;11.35;6.25;;;9.40;99.90;;;;;;5116841;28;20122;-64
2022/12/25 12:56:59;;;;;;;13.43;5.93;;;9.40;99.90;;;;;;5116756;28;20040;-63
2022/12/25 12:59:26;;;;;;;12.60;5.97;;;9.40;99.90;;;;;;5116671;28;20035;-64
2022/12/25 13:02:12;;;;;;;13.10;7.00;;;9.30;99.90;;;;;;5116444;28;20055;-64
2022/12/25 13:04:46;;;;;;;10.40;6.97;;;9.40;99.90;;;;;;5117010;28;20076;-63
2022/12/25 13:07:30;;;;;;;19.88;7.95;;;9.30;99.90;;;;;;5116980;28;20102;-63
2022/12/25 13:10:15;;;;;;;11.52;6.30;;;9.50;99.90;;;;;;5116883;28;20047;-64
2022/12/25 13:12:41;;;;;;;12.75;6.47;;;9.50;99.90;;;;;;5116560;28;20032;-63
2022/12/25 13:15:13;;;;;;;13.18;7.20;;;9.30;99.90;;;;;;5116940;28;20040;-63
2022/12/25 13:17:43;;;;;;;11.48;6.15;;;9.50;99.90;;;;;;5116565;28;20504;-63
2022/12/25 13:20:22;;;;;;;11.13;6.30;;;9.40;99.90;;;;;;5116945;28;20081;-63
2022/12/25 13:22:48;;;;;;;10.43;6.22;;;9.40;99.90;;;;;;5117025;28;20091;-63
2022/12/25 13:25:19;;;;;;;12.85;6.45;;;9.50;99.90;;;;;;5116881;28;20172;-63
2022/12/25 13:27:52;;;;;;;10.68;5.35;;;9.50;99.90;;;;;;5116943;28;20043;-63
2022/12/25 13:30:19;;;;;;;14.90;7.40;;;9.40;99.90;;;;;;5116872;28;20044;-63
2022/12/25 13:32:45;;;;;;;11.13;6.20;;;9.40;99.90;;;;;;5116286;28;20495;-63
2022/12/25 13:35:15;;;;;;;10.52;5.88;;;9.50;99.90;;;;;;5112880;28;20036;-63
2022/12/25 13:37:41;;;;;;;8.73;5.60;;;9.40;99.90;;;;;;5115763;28;20035;-64
2022/12/25 13:40:23;;;;;;;10.75;6.32;;;9.60;99.90;;;;;;5116059;28;20063;-63
2022/12/25 13:42:57;;;;;;;8.63;6.07;;;9.50;99.90;;;;;;5115994;28;20061;-64
2022/12/25 13:45:30;;;;;;;10.20;6.53;;;9.50;99.90;;;;;;5095827;28;20043;-64
2022/12/25 13:47:57;;;;;;;11.05;6.57;;;9.50;99.90;;;;;;5113327;28;20023;-64
2022/12/25 13:50:31;;;;;;;9.77;6.60;;;9.60;99.90;;;;;;5116266;28;20115;-63
2022/12/25 13:53:09;;;;;;;13.63;7.82;;;9.60;99.90;;;;;;5113259;28;20048;-64
2022/12/25 13:55:35;;;;;;;11.70;7.00;;;9.50;99.90;;;;;;5096425;28;20043;-64
2022/12/25 13:58:03;;;;;;;13.02;7.35;;;9.70;99.90;;;;;;5114797;28;20035;-63
2022/12/25 14:00:45;;;;;;;10.98;6.65;;;9.50;99.90;;;;;;5113270;28;20423;-64
2022/12/25 14:03:23;;;;;;;14.13;8.23;;;9.60;99.90;;;;;;5113420;28;20035;-64
2022/12/25 14:05:58;;;;;;;16.55;7.15;;;9.60;99.90;;;;;;5115702;28;20032;-64
2022/12/25 14:08:26;;;;;;;10.35;7.68;;;9.60;99.90;;;;;;5115818;28;20477;-64
2022/12/25 14:10:54;;;;;;;9.93;7.97;;;9.60;99.90;;;;;;5116219;28;20367;-64
2022/12/25 14:13:26;;;;;;;14.90;7.90;;;9.60;99.90;;;;;;5097478;28;20048;-64
2022/12/25 14:15:54;;;;;;;16.95;9.07;;;9.60;99.90;;;;;;5115923;28;20039;-63
2022/12/25 14:18:22;;;;;;;13.85;7.90;;;9.60;99.90;;;;;;5079892;28;20055;-64
2022/12/25 14:21:11;;;;;;;14.67;9.60;;;9.60;99.90;;;;;;5115734;28;20051;-64
2022/12/25 14:23:42;;;;;;;16.47;10.77;;;9.60;99.90;;;;;;5115716;28;20074;-64
2022/12/25 14:26:34;;;;;;;15.73;10.43;;;9.50;99.90;;;;;;5115512;28;20046;-63
2022/12/25 14:29:08;;;;;;;18.85;10.65;;;9.50;99.90;;;;;;5114295;28;20439;-64
2022/12/25 14:31:37;;;;;;;15.82;12.40;;;9.50;99.90;;;;;;5115532;28;20043;-63
2022/12/25 14:34:06;;;;;;;19.63;12.40;;;9.50;99.90;;;;;;5115532;28;20423;-63
2022/12/25 14:36:32;;;;;;;22.75;13.82;;;9.50;99.90;;;;;;5115296;28;20043;-63